Pine Grove, New York
Current Conditions -  °F | °C
As of 3:58 AM on Wednesday 26 Nov 2014 (Local Time) from KGTB Reporting Station
Broken Clouds Broken Clouds  
Wind Chill:   Ceiling: 4300
Heat Index:   Visibility: 10mi
Dew Point: -4°   Wind: 3mph
Humidity: 76%   Direction: 280°W
Pressure: 30.2"   Gusts: NA
Location:  43.7232°N, 75.2497°W
Report Text: KGTB 260858Z AUTO 28003KT 10SM BKN043 00/M04 A3020 RMK AO2 SLP234 T10051042 50009
Loading
Personal Weather Stations






























Interactive Weather Map New forecast layout! Learn more

10-Day Weather Forecast

Advertisements
Track Severe Weather on mobile